Gasconade River (Missouri), Rich Fountain (06934000)

StateMissouriCurrentPotential (1040 cfs)
RiverGasconade RiverFlood - The river is flooding. Obstacles can be treacherous or deadly. The river should be avoided at this stage for casual trips and definitely for the inexperienced. Trips should be attempted only with protective gear and equipment.Flood(none)
Updated2019-10-13 19:30 (41 minutes ago)High - The river is high and potentially dangerous, especially for the young and / or inexperienced. Normal stream obstacles are sometimes difficult to navigate. Extended distances can be attempted, but canoe travel may not be advisable.High(none)
Discharge1040 cfs (median: 675 cfs)Good - Conditions are ideal for a canoe or kayak. Boats typically will drag on fewer than one-quarter of riffles, if at all, and portages are unnecessary or rare. Normal float lengths can be attempted without a problem.Good(none)
Height3.13 feetLow - River is low but can still be floated. Some riffles are okay but most come with significant dragging and might need a portage. Float lengths should be reduced to accommodate low flow, dragging, and portages.Low(none)
TrendSteady (falling over 24 hours)Poor - River is too low to float comfortably. Most or all riffles will drag or must be portaged and some obstacles (such as slick shelf rock) cause undue problems. Avoid the river at this stage for casual paddling trips.Poor(none)
USGSExternal icon USGS Site for Rich Fountain (06934000)LocationExternal icon Google Maps

Trending Data

Plot Image
ObservationHeightDischargeMaximum
Discharge
Minimum
Discharge
Mean
Discharge
P05P10P20P25P50
(Median)
P75P80P90P95
2019-10-13 19:30 3.13 1040 29900 (1950) 283 (1957) 1770 416 480 542 585 675 1210 1890 3300 6100
2019-10-13 18:30 3.13 1040 29900 (1950) 283 (1957) 1770 416 480 542 585 675 1210 1890 3300 6100
2019-10-13 17:30 3.13 1040 29900 (1950) 283 (1957) 1770 416 480 542 585 675 1210 1890 3300 6100
2019-10-13 16:30 3.13 1040 29900 (1950) 283 (1957) 1770 416 480 542 585 675 1210 1890 3300 6100
2019-10-13 15:30 3.13 1040 29900 (1950) 283 (1957) 1770 416 480 542 585 675 1210 1890 3300 6100
2019-10-13 14:30 3.14 1050 29900 (1950) 283 (1957) 1770 416 480 542 585 675 1210 1890 3300 6100
2019-10-13 13:30 3.14 1050 29900 (1950) 283 (1957) 1770 416 480 542 585 675 1210 1890 3300 6100
2019-10-13 12:30 3.14 1050 29900 (1950) 283 (1957) 1770 416 480 542 585 675 1210 1890 3300 6100
2019-10-13 11:30 3.14 1050 29900 (1950) 283 (1957) 1770 416 480 542 585 675 1210 1890 3300 6100
2019-10-13 10:30 3.14 1050 29900 (1950) 283 (1957) 1770 416 480 542 585 675 1210 1890 3300 6100
2019-10-13 09:30 3.14 1050 29900 (1950) 283 (1957) 1770 416 480 542 585 675 1210 1890 3300 6100
2019-10-13 08:30 3.14 1050 29900 (1950) 283 (1957) 1770 416 480 542 585 675 1210 1890 3300 6100
2019-10-13 07:30 3.15 1060 29900 (1950) 283 (1957) 1770 416 480 542 585 675 1210 1890 3300 6100
2019-10-13 06:30 3.14 1050 29900 (1950) 283 (1957) 1770 416 480 542 585 675 1210 1890 3300 6100
2019-10-13 05:30 3.15 1060 29900 (1950) 283 (1957) 1770 416 480 542 585 675 1210 1890 3300 6100
2019-10-13 04:30 3.15 1060 29900 (1950) 283 (1957) 1770 416 480 542 585 675 1210 1890 3300 6100
2019-10-13 03:30 3.15 1060 29900 (1950) 283 (1957) 1770 416 480 542 585 675 1210 1890 3300 6100
2019-10-13 02:30 3.15 1060 29900 (1950) 283 (1957) 1770 416 480 542 585 675 1210 1890 3300 6100
2019-10-13 01:30 3.15 1060 29900 (1950) 283 (1957) 1770 416 480 542 585 675 1210 1890 3300 6100
2019-10-13 00:30 3.15 1060 29900 (1950) 283 (1957) 1770 416 480 542 585 675 1210 1890 3300 6100
2019-10-12 23:30 3.15 1060 26200 (1950) 280 (1957) 1880 415 475 551 578 688 1320 2110 3000 8020
2019-10-12 22:30 3.15 1060 26200 (1950) 280 (1957) 1880 415 475 551 578 688 1320 2110 3000 8020
2019-10-12 21:30 3.15 1060 26200 (1950) 280 (1957) 1880 415 475 551 578 688 1320 2110 3000 8020
2019-10-12 20:30 3.16 1070 26200 (1950) 280 (1957) 1880 415 475 551 578 688 1320 2110 3000 8020
2019-10-12 19:30 3.15 1060 26200 (1950) 280 (1957) 1880 415 475 551 578 688 1320 2110 3000 8020
2019-10-12 18:30 3.15 1060 26200 (1950) 280 (1957) 1880 415 475 551 578 688 1320 2110 3000 8020
2019-10-12 17:30 3.15 1060 26200 (1950) 280 (1957) 1880 415 475 551 578 688 1320 2110 3000 8020
2019-10-12 16:30 3.15 1060 26200 (1950) 280 (1957) 1880 415 475 551 578 688 1320 2110 3000 8020
2019-10-12 15:30 3.15 1060 26200 (1950) 280 (1957) 1880 415 475 551 578 688 1320 2110 3000 8020
2019-10-12 14:30 3.15 1060 26200 (1950) 280 (1957) 1880 415 475 551 578 688 1320 2110 3000 8020
2019-10-12 13:30 3.14 1050 26200 (1950) 280 (1957) 1880 415 475 551 578 688 1320 2110 3000 8020
2019-10-12 12:30 3.13 1040 26200 (1950) 280 (1957) 1880 415 475 551 578 688 1320 2110 3000 8020
2019-10-12 11:30 3.14 1050 26200 (1950) 280 (1957) 1880 415 475 551 578 688 1320 2110 3000 8020
2019-10-12 10:30 3.13 1040 26200 (1950) 280 (1957) 1880 415 475 551 578 688 1320 2110 3000 8020
2019-10-12 09:30 3.12 1030 26200 (1950) 280 (1957) 1880 415 475 551 578 688 1320 2110 3000 8020
2019-10-12 08:30 3.11 1020 26200 (1950) 280 (1957) 1880 415 475 551 578 688 1320 2110 3000 8020
2019-10-12 07:30 3.10 1020 26200 (1950) 280 (1957) 1880 415 475 551 578 688 1320 2110 3000 8020
2019-10-12 06:30 3.10 1020 26200 (1950) 280 (1957) 1880 415 475 551 578 688 1320 2110 3000 8020
2019-10-12 05:30 3.09 1010 26200 (1950) 280 (1957) 1880 415 475 551 578 688 1320 2110 3000 8020
2019-10-12 04:30 3.08 997 26200 (1950) 280 (1957) 1880 415 475 551 578 688 1320 2110 3000 8020
2019-10-12 03:30 3.07 988 26200 (1950) 280 (1957) 1880 415 475 551 578 688 1320 2110 3000 8020
2019-10-12 02:30 3.06 979 26200 (1950) 280 (1957) 1880 415 475 551 578 688 1320 2110 3000 8020
2019-10-12 01:30 3.06 979 26200 (1950) 280 (1957) 1880 415 475 551 578 688 1320 2110 3000 8020
2019-10-12 00:30 3.05 971 26200 (1950) 280 (1957) 1880 415 475 551 578 688 1320 2110 3000 8020
2019-10-11 23:30 3.05 971 21700 (2010) 280 (1957) 1670 419 475 537 562 710 1270 1720 3210 6800
2019-10-11 22:30 3.04 962 21700 (2010) 280 (1957) 1670 419 475 537 562 710 1270 1720 3210 6800
2019-10-11 21:30 3.04 962 21700 (2010) 280 (1957) 1670 419 475 537 562 710 1270 1720 3210 6800
2019-10-11 20:30 3.04 962 21700 (2010) 280 (1957) 1670 419 475 537 562 710 1270 1720 3210 6800
2019-10-11 19:30 3.03 953 21700 (2010) 280 (1957) 1670 419 475 537 562 710 1270 1720 3210 6800
2019-10-11 18:30 3.03 953 21700 (2010) 280 (1957) 1670 419 475 537 562 710 1270 1720 3210 6800
2019-10-11 17:30 3.03 953 21700 (2010) 280 (1957) 1670 419 475 537 562 710 1270 1720 3210 6800
2019-10-11 16:30 3.04 962 21700 (2010) 280 (1957) 1670 419 475 537 562 710 1270 1720 3210 6800
2019-10-11 15:30 3.03 953 21700 (2010) 280 (1957) 1670 419 475 537 562 710 1270 1720 3210 6800
2019-10-11 14:30 3.03 953 21700 (2010) 280 (1957) 1670 419 475 537 562 710 1270 1720 3210 6800
2019-10-11 13:30 3.04 962 21700 (2010) 280 (1957) 1670 419 475 537 562 710 1270 1720 3210 6800
2019-10-11 12:30 3.04 962 21700 (2010) 280 (1957) 1670 419 475 537 562 710 1270 1720 3210 6800
2019-10-11 11:30 3.05 971 21700 (2010) 280 (1957) 1670 419 475 537 562 710 1270 1720 3210 6800
2019-10-11 10:30 3.06 979 21700 (2010) 280 (1957) 1670 419 475 537 562 710 1270 1720 3210 6800
2019-10-11 09:30 3.08 997 21700 (2010) 280 (1957) 1670 419 475 537 562 710 1270 1720 3210 6800
2019-10-11 08:30 3.10 1020 21700 (2010) 280 (1957) 1670 419 475 537 562 710 1270 1720 3210 6800
2019-10-11 07:30 3.14 1050 21700 (2010) 280 (1957) 1670 419 475 537 562 710 1270 1720 3210 6800
2019-10-11 06:30 3.20 1110 21700 (2010) 280 (1957) 1670 419 475 537 562 710 1270 1720 3210 6800
2019-10-11 05:30 3.28 1190 21700 (2010) 280 (1957) 1670 419 475 537 562 710 1270 1720 3210 6800
2019-10-11 04:30 3.41 1320 21700 (2010) 280 (1957) 1670 419 475 537 562 710 1270 1720 3210 6800
2019-10-11 03:30 3.60 1520 21700 (2010) 280 (1957) 1670 419 475 537 562 710 1270 1720 3210 6800
2019-10-11 02:30 3.90 1890 21700 (2010) 280 (1957) 1670 419 475 537 562 710 1270 1720 3210 6800
2019-10-11 01:30 4.36 2550 21700 (2010) 280 (1957) 1670 419 475 537 562 710 1270 1720 3210 6800
2019-10-11 00:30 4.92 3530 21700 (2010) 280 (1957) 1670 419 475 537 562 710 1270 1720 3210 6800
2019-10-10 23:30 4.69 3100 23100 (2010) 277 (1957) 1720 394 475 522 560 710 1350 1940 4050 6540
2019-10-10 22:30 3.49 1400 23100 (2010) 277 (1957) 1720 394 475 522 560 710 1350 1940 4050 6540
2019-10-10 21:30 3.06 979 23100 (2010) 277 (1957) 1720 394 475 522 560 710 1350 1940 4050 6540
2019-10-10 20:30 2.98 910 23100 (2010) 277 (1957) 1720 394 475 522 560 710 1350 1940 4050 6540
2019-10-10 19:30 2.98 910 23100 (2010) 277 (1957) 1720 394 475 522 560 710 1350 1940 4050 6540
2019-10-10 18:30 2.97 902 23100 (2010) 277 (1957) 1720 394 475 522 560 710 1350 1940 4050 6540
2019-10-10 17:30 2.95 885 23100 (2010) 277 (1957) 1720 394 475 522 560 710 1350 1940 4050 6540
2019-10-10 16:30 2.89 837 23100 (2010) 277 (1957) 1720 394 475 522 560 710 1350 1940 4050 6540
2019-10-10 15:30 2.89 837 23100 (2010) 277 (1957) 1720 394 475 522 560 710 1350 1940 4050 6540
2019-10-10 14:30 2.88 829 23100 (2010) 277 (1957) 1720 394 475 522 560 710 1350 1940 4050 6540
2019-10-10 13:30 2.87 821 23100 (2010) 277 (1957) 1720 394 475 522 560 710 1350 1940 4050 6540
2019-10-10 12:30 2.87 821 23100 (2010) 277 (1957) 1720 394 475 522 560 710 1350 1940 4050 6540
2019-10-10 11:30 2.88 829 23100 (2010) 277 (1957) 1720 394 475 522 560 710 1350 1940 4050 6540
2019-10-10 10:30 2.88 829 23100 (2010) 277 (1957) 1720 394 475 522 560 710 1350 1940 4050 6540
2019-10-10 09:30 2.88 829 23100 (2010) 277 (1957) 1720 394 475 522 560 710 1350 1940 4050 6540
2019-10-10 08:30 2.88 829 23100 (2010) 277 (1957) 1720 394 475 522 560 710 1350 1940 4050 6540
2019-10-10 07:30 2.87 821 23100 (2010) 277 (1957) 1720 394 475 522 560 710 1350 1940 4050 6540
2019-10-10 06:30 2.87 821 23100 (2010) 277 (1957) 1720 394 475 522 560 710 1350 1940 4050 6540
2019-10-10 05:30 2.86 813 23100 (2010) 277 (1957) 1720 394 475 522 560 710 1350 1940 4050 6540
2019-10-10 04:30 2.87 821 23100 (2010) 277 (1957) 1720 394 475 522 560 710 1350 1940 4050 6540
2019-10-10 03:30 2.87 821 23100 (2010) 277 (1957) 1720 394 475 522 560 710 1350 1940 4050 6540
2019-10-10 02:30 2.87 821 23100 (2010) 277 (1957) 1720 394 475 522 560 710 1350 1940 4050 6540
2019-10-10 01:30 2.86 813 23100 (2010) 277 (1957) 1720 394 475 522 560 710 1350 1940 4050 6540
2019-10-10 00:30 2.87 821 23100 (2010) 277 (1957) 1720 394 475 522 560 710 1350 1940 4050 6540
2019-10-09 23:30 2.86 813 20500 (2010) 277 (1957) 1580 393 455 508 556 726 1340 1780 3500 5100
2019-10-09 22:30 2.86 813 20500 (2010) 277 (1957) 1580 393 455 508 556 726 1340 1780 3500 5100
2019-10-09 21:30 2.86 813 20500 (2010) 277 (1957) 1580 393 455 508 556 726 1340 1780 3500 5100
2019-10-09 20:30 2.87 821 20500 (2010) 277 (1957) 1580 393 455 508 556 726 1340 1780 3500 5100
2019-10-09 19:30 2.87 821 20500 (2010) 277 (1957) 1580 393 455 508 556 726 1340 1780 3500 5100
2019-10-09 18:30 2.87 821 20500 (2010) 277 (1957) 1580 393 455 508 556 726 1340 1780 3500 5100
2019-10-09 17:30 2.87 821 20500 (2010) 277 (1957) 1580 393 455 508 556 726 1340 1780 3500 5100
2019-10-09 16:30 2.86 813 20500 (2010) 277 (1957) 1580 393 455 508 556 726 1340 1780 3500 5100
2019-10-09 15:30 2.86 813 20500 (2010) 277 (1957) 1580 393 455 508 556 726 1340 1780 3500 5100
2019-10-09 14:30 2.86 813 20500 (2010) 277 (1957) 1580 393 455 508 556 726 1340 1780 3500 5100
2019-10-09 13:30 2.86 813 20500 (2010) 277 (1957) 1580 393 455 508 556 726 1340 1780 3500 5100
2019-10-09 12:30 2.86 813 20500 (2010) 277 (1957) 1580 393 455 508 556 726 1340 1780 3500 5100
2019-10-09 11:30 2.86 813 20500 (2010) 277 (1957) 1580 393 455 508 556 726 1340 1780 3500 5100
2019-10-09 10:30 2.86 813 20500 (2010) 277 (1957) 1580 393 455 508 556 726 1340 1780 3500 5100
2019-10-09 09:30 2.85 805 20500 (2010) 277 (1957) 1580 393 455 508 556 726 1340 1780 3500 5100
2019-10-09 08:30 2.85 805 20500 (2010) 277 (1957) 1580 393 455 508 556 726 1340 1780 3500 5100
2019-10-09 07:30 2.85 805 20500 (2010) 277 (1957) 1580 393 455 508 556 726 1340 1780 3500 5100
2019-10-09 06:30 2.85 805 20500 (2010) 277 (1957) 1580 393 455 508 556 726 1340 1780 3500 5100
2019-10-09 05:30 2.85 805 20500 (2010) 277 (1957) 1580 393 455 508 556 726 1340 1780 3500 5100
2019-10-09 04:30 2.85 805 20500 (2010) 277 (1957) 1580 393 455 508 556 726 1340 1780 3500 5100
2019-10-09 03:30 2.85 805 20500 (2010) 277 (1957) 1580 393 455 508 556 726 1340 1780 3500 5100
2019-10-09 02:30 2.85 805 20500 (2010) 277 (1957) 1580 393 455 508 556 726 1340 1780 3500 5100
2019-10-09 01:30 2.85 805 20500 (2010) 277 (1957) 1580 393 455 508 556 726 1340 1780 3500 5100
2019-10-09 00:30 2.85 805 20500 (2010) 277 (1957) 1580 393 455 508 556 726 1340 1780 3500 5100
2019-10-08 23:30 2.85 805 12600 (1950) 277 (1957) 1410 393 455 514 556 745 1230 1890 3720 4650
2019-10-08 22:30 2.85 805 12600 (1950) 277 (1957) 1410 393 455 514 556 745 1230 1890 3720 4650
2019-10-08 21:30 2.86 813 12600 (1950) 277 (1957) 1410 393 455 514 556 745 1230 1890 3720 4650
2019-10-08 20:30 2.86 813 12600 (1950) 277 (1957) 1410 393 455 514 556 745 1230 1890 3720 4650
2019-10-08 19:30 2.86 813 12600 (1950) 277 (1957) 1410 393 455 514 556 745 1230 1890 3720 4650
2019-10-08 18:30 2.86 813 12600 (1950) 277 (1957) 1410 393 455 514 556 745 1230 1890 3720 4650
2019-10-08 17:30 2.86 813 12600 (1950) 277 (1957) 1410 393 455 514 556 745 1230 1890 3720 4650
2019-10-08 16:30 2.86 813 12600 (1950) 277 (1957) 1410 393 455 514 556 745 1230 1890 3720 4650
2019-10-08 15:30 2.86 813 12600 (1950) 277 (1957) 1410 393 455 514 556 745 1230 1890 3720 4650
2019-10-08 14:30 2.86 813 12600 (1950) 277 (1957) 1410 393 455 514 556 745 1230 1890 3720 4650
2019-10-08 13:30 2.86 813 12600 (1950) 277 (1957) 1410 393 455 514 556 745 1230 1890 3720 4650
2019-10-08 12:30 2.86 813 12600 (1950) 277 (1957) 1410 393 455 514 556 745 1230 1890 3720 4650
2019-10-08 11:30 2.86 813 12600 (1950) 277 (1957) 1410 393 455 514 556 745 1230 1890 3720 4650
2019-10-08 10:30 2.86 813 12600 (1950) 277 (1957) 1410 393 455 514 556 745 1230 1890 3720 4650
2019-10-08 09:30 2.86 813 12600 (1950) 277 (1957) 1410 393 455 514 556 745 1230 1890 3720 4650
2019-10-08 08:30 2.86 813 12600 (1950) 277 (1957) 1410 393 455 514 556 745 1230 1890 3720 4650
2019-10-08 07:30 2.85 805 12600 (1950) 277 (1957) 1410 393 455 514 556 745 1230 1890 3720 4650
2019-10-08 06:30 2.86 813 12600 (1950) 277 (1957) 1410 393 455 514 556 745 1230 1890 3720 4650
2019-10-08 05:30 2.85 805 12600 (1950) 277 (1957) 1410 393 455 514 556 745 1230 1890 3720 4650
2019-10-08 04:30 2.86 813 12600 (1950) 277 (1957) 1410 393 455 514 556 745 1230 1890 3720 4650
2019-10-08 03:30 2.86 813 12600 (1950) 277 (1957) 1410 393 455 514 556 745 1230 1890 3720 4650
2019-10-08 02:30 2.85 805 12600 (1950) 277 (1957) 1410 393 455 514 556 745 1230 1890 3720 4650
2019-10-08 01:30 2.86 813 12600 (1950) 277 (1957) 1410 393 455 514 556 745 1230 1890 3720 4650
2019-10-08 00:30 2.86 813 12600 (1950) 277 (1957) 1410 393 455 514 556 745 1230 1890 3720 4650
2019-10-07 23:30 2.86 813 17100 (1950) 280 (1957) 1470 398 479 523 542 696 1180 1460 3920 5590
2019-10-07 22:30 2.86 813 17100 (1950) 280 (1957) 1470 398 479 523 542 696 1180 1460 3920 5590
2019-10-07 21:30 2.86 813 17100 (1950) 280 (1957) 1470 398 479 523 542 696 1180 1460 3920 5590
2019-10-07 20:30 2.86 813 17100 (1950) 280 (1957) 1470 398 479 523 542 696 1180 1460 3920 5590
2019-10-07 19:30 2.86 813 17100 (1950) 280 (1957) 1470 398 479 523 542 696 1180 1460 3920 5590
2019-10-07 18:30 2.86 813 17100 (1950) 280 (1957) 1470 398 479 523 542 696 1180 1460 3920 5590
2019-10-07 17:30 2.86 813 17100 (1950) 280 (1957) 1470 398 479 523 542 696 1180 1460 3920 5590
2019-10-07 16:30 2.86 813 17100 (1950) 280 (1957) 1470 398 479 523 542 696 1180 1460 3920 5590
2019-10-07 15:30 2.87 821 17100 (1950) 280 (1957) 1470 398 479 523 542 696 1180 1460 3920 5590
2019-10-07 14:30 2.86 813 17100 (1950) 280 (1957) 1470 398 479 523 542 696 1180 1460 3920 5590
2019-10-07 13:30 2.87 821 17100 (1950) 280 (1957) 1470 398 479 523 542 696 1180 1460 3920 5590
2019-10-07 12:30 2.87 821 17100 (1950) 280 (1957) 1470 398 479 523 542 696 1180 1460 3920 5590
2019-10-07 11:30 2.87 821 17100 (1950) 280 (1957) 1470 398 479 523 542 696 1180 1460 3920 5590
2019-10-07 10:30 2.87 821 17100 (1950) 280 (1957) 1470 398 479 523 542 696 1180 1460 3920 5590
2019-10-07 09:30 2.87 821 17100 (1950) 280 (1957) 1470 398 479 523 542 696 1180 1460 3920 5590
2019-10-07 08:30 2.87 821 17100 (1950) 280 (1957) 1470 398 479 523 542 696 1180 1460 3920 5590
2019-10-07 07:30 2.87 821 17100 (1950) 280 (1957) 1470 398 479 523 542 696 1180 1460 3920 5590
2019-10-07 06:30 2.87 821 17100 (1950) 280 (1957) 1470 398 479 523 542 696 1180 1460 3920 5590
2019-10-07 05:30 2.87 821 17100 (1950) 280 (1957) 1470 398 479 523 542 696 1180 1460 3920 5590
2019-10-07 04:30 2.87 821 17100 (1950) 280 (1957) 1470 398 479 523 542 696 1180 1460 3920 5590
2019-10-07 03:30 2.86 813 17100 (1950) 280 (1957) 1470 398 479 523 542 696 1180 1460 3920 5590
2019-10-07 02:30 2.87 821 17100 (1950) 280 (1957) 1470 398 479 523 542 696 1180 1460 3920 5590
2019-10-07 01:30 2.86 813 17100 (1950) 280 (1957) 1470 398 479 523 542 696 1180 1460 3920 5590
2019-10-07 00:30 2.87 821 17100 (1950) 280 (1957) 1470 398 479 523 542 696 1180 1460 3920 5590
2019-10-06 23:30 2.86 813 14000 (1950) 283 (1957) 1580 406 470 522 533 696 1260 1450 4500 6440
2019-10-06 22:30 2.87 821 14000 (1950) 283 (1957) 1580 406 470 522 533 696 1260 1450 4500 6440
2019-10-06 21:30 2.86 813 14000 (1950) 283 (1957) 1580 406 470 522 533 696 1260 1450 4500 6440
2019-10-06 20:30 2.87 821 14000 (1950) 283 (1957) 1580 406 470 522 533 696 1260 1450 4500 6440
2019-10-06 19:30 2.87 821 14000 (1950) 283 (1957) 1580 406 470 522 533 696 1260 1450 4500 6440
2019-10-06 18:30 2.86 813 14000 (1950) 283 (1957) 1580 406 470 522 533 696 1260 1450 4500 6440
2019-10-06 17:30 2.87 821 14000 (1950) 283 (1957) 1580 406 470 522 533 696 1260 1450 4500 6440
2019-10-06 16:30 2.86 813 14000 (1950) 283 (1957) 1580 406 470 522 533 696 1260 1450 4500 6440
2019-10-06 15:30 2.87 821 14000 (1950) 283 (1957) 1580 406 470 522 533 696 1260 1450 4500 6440
2019-10-06 14:30 2.87 821 14000 (1950) 283 (1957) 1580 406 470 522 533 696 1260 1450 4500 6440
2019-10-06 13:30 2.87 821 14000 (1950) 283 (1957) 1580 406 470 522 533 696 1260 1450 4500 6440
2019-10-06 12:30 2.86 813 14000 (1950) 283 (1957) 1580 406 470 522 533 696 1260 1450 4500 6440
2019-10-06 11:30 2.86 813 14000 (1950) 283 (1957) 1580 406 470 522 533 696 1260 1450 4500 6440
2019-10-06 10:30 2.87 821 14000 (1950) 283 (1957) 1580 406 470 522 533 696 1260 1450 4500 6440
2019-10-06 09:30 2.87 821 14000 (1950) 283 (1957) 1580 406 470 522 533 696 1260 1450 4500 6440
2019-10-06 08:30 2.87 821 14000 (1950) 283 (1957) 1580 406 470 522 533 696 1260 1450 4500 6440
2019-10-06 07:30 2.87 821 14000 (1950) 283 (1957) 1580 406 470 522 533 696 1260 1450 4500 6440
2019-10-06 06:30 2.87 821 14000 (1950) 283 (1957) 1580 406 470 522 533 696 1260 1450 4500 6440
2019-10-06 05:30 2.87 821 14000 (1950) 283 (1957) 1580 406 470 522 533 696 1260 1450 4500 6440
2019-10-06 04:30 2.87 821 14000 (1950) 283 (1957) 1580 406 470 522 533 696 1260 1450 4500 6440
2019-10-06 03:30 2.87 821 14000 (1950) 283 (1957) 1580 406 470 522 533 696 1260 1450 4500 6440
2019-10-06 02:30 2.87 821 14000 (1950) 283 (1957) 1580 406 470 522 533 696 1260 1450 4500 6440
2019-10-06 01:30 2.87 821 14000 (1950) 283 (1957) 1580 406 470 522 533 696 1260 1450 4500 6440
2019-10-06 00:30 2.87 821 14000 (1950) 283 (1957) 1580 406 470 522 533 696 1260 1450 4500 6440

A total of 188 rows are displayed for years 1923 through 2018.

Trips for Gasconade River (Missouri), Rich Fountain (06934000)

DateStartEndDistanceConditionDischargeHeightFishingDetails

A total of 0 rows are displayed.

Condition Descriptions

Fishing Conditions

Fish Species

Notes

Classic Trip List

The classic River Trips application is still available for use. It is updated with the new system using a data retrofit. It is no longer maintained. The original River Trips application is no longer updated (as of 1 Dec 2016) but can be checked for errors or for the condition of the data before it was converted to the new system.